Time;durP1;ratioP1;P1;durP2;ratioP2;P2;SDS_P1;SDS_P2;PMS_P1;PMS_P2;Temp;Humidity;BMP_temperature;BMP_pressure;BME280_temperature;BME280_humidity;BME280_pressure;Samples;Min_cycle;Max_cycle;Signal;HPM_P1;HPM_P2
2023/06/25 00:00:27;;;;;;;6.63;5.30;;;;;;;16.61;75.29;96326.69;5093111;28;20048;-64
2023/06/25 00:02:54;;;;;;;13.43;5.88;;;;;;;16.61;75.63;96325.84;5092811;28;20051;-69
2023/06/25 00:05:21;;;;;;;5.75;5.07;;;;;;;16.62;75.55;96338.09;5093096;28;20049;-69
2023/06/25 00:07:48;;;;;;;7.90;4.85;;;;;;;16.67;75.32;96325.44;5093073;28;20131;-70
2023/06/25 00:10:17;;;;;;;9.25;4.72;;;;;;;16.69;75.33;96326.19;5089880;28;20127;-69
2023/06/25 00:12:44;;;;;;;10.10;4.55;;;;;;;16.71;75.05;96334.00;5072876;28;20053;-67
2023/06/25 00:15:13;;;;;;;7.13;5.03;;;;;;;16.59;74.88;96325.09;5072995;28;20055;-72
2023/06/25 00:17:40;;;;;;;5.88;4.90;;;;;;;16.57;75.07;96324.34;5072863;28;20052;-63
2023/06/25 00:20:09;;;;;;;4.93;4.43;;;;;;;16.60;75.26;96332.94;5072788;28;20080;-69
2023/06/25 00:22:36;;;;;;;5.03;4.53;;;;;;;16.62;75.30;96324.91;5091786;28;20137;-65
2023/06/25 00:25:03;;;;;;;7.40;4.88;;;;;;;16.62;75.37;96331.00;5092983;28;20532;-71
2023/06/25 00:27:31;;;;;;;6.15;4.68;;;;;;;16.62;74.97;96333.66;5092766;28;20044;-71
2023/06/25 00:30:00;;;;;;;9.25;4.70;;;;;;;16.61;74.73;96339.91;5092837;28;20048;-68
2023/06/25 00:32:27;;;;;;;6.38;4.78;;;;;;;16.53;74.55;96340.38;5092908;28;20052;-71
2023/06/25 00:34:57;;;;;;;8.32;5.20;;;;;;;16.49;74.57;96338.03;5092463;28;20072;-68
2023/06/25 00:37:25;;;;;;;12.13;4.90;;;;;;;16.44;74.78;96332.25;5092756;28;20503;-67
2023/06/25 00:39:52;;;;;;;8.50;4.95;;;;;;;16.39;74.62;96335.16;5091012;28;20048;-69
2023/06/25 00:42:19;;;;;;;6.05;4.80;;;;;;;16.35;75.34;96334.53;5092717;28;20078;-68
2023/06/25 00:44:48;;;;;;;8.18;4.63;;;;;;;16.28;75.71;96330.56;5092434;28;20110;-69
2023/06/25 00:47:17;;;;;;;9.52;5.13;;;;;;;16.25;75.82;96323.72;5090610;28;20436;-69
2023/06/25 00:49:46;;;;;;;7.15;4.63;;;;;;;16.20;75.80;96328.47;5092677;28;20048;-69
2023/06/25 00:52:14;;;;;;;9.77;5.30;;;;;;;16.15;75.76;96322.63;5092463;28;20040;-67
2023/06/25 00:54:43;;;;;;;6.50;4.40;;;;;;;16.11;75.95;96321.13;5093681;28;20051;-70
2023/06/25 00:57:11;;;;;;;8.02;5.25;;;;;;;16.09;75.91;96321.22;5095825;28;20048;-67
2023/06/25 00:59:42;;;;;;;6.53;4.45;;;;;;;16.01;75.89;96328.75;5096353;28;20050;-66
2023/06/25 01:02:18;;;;;;;6.18;5.05;;;;;;;15.97;76.22;96322.84;5096217;28;20043;-63
2023/06/25 01:04:51;;;;;;;5.45;4.20;;;;;;;15.97;76.13;96324.63;5096249;28;20040;-69
2023/06/25 01:07:25;;;;;;;7.95;4.30;;;;;;;15.94;75.99;96322.16;5094318;28;20040;-71
2023/06/25 01:09:52;;;;;;;7.22;4.85;;;;;;;15.88;75.99;96320.75;5095972;28;20486;-69
2023/06/25 01:12:19;;;;;;;5.78;4.93;;;;;;;15.86;76.03;96323.47;5095902;28;20134;-69
2023/06/25 01:14:49;;;;;;;6.57;4.60;;;;;;;15.86;75.98;96315.56;5095340;28;20500;-69
2023/06/25 01:17:17;;;;;;;5.78;4.82;;;;;;;15.86;75.22;96317.38;5096005;28;20405;-67
2023/06/25 01:19:45;;;;;;;5.32;4.60;;;;;;;15.83;75.11;96312.31;5095943;28;20551;-67
2023/06/25 01:22:14;;;;;;;7.10;4.53;;;;;;;15.74;75.18;96314.56;5095782;28;20131;-72
2023/06/25 01:24:44;;;;;;;6.95;4.90;;;;;;;15.68;75.25;96316.75;5094939;28;20478;-66
2023/06/25 01:27:12;;;;;;;6.28;4.90;;;;;;;15.54;74.64;96314.00;5095541;28;20054;-71
2023/06/25 01:29:39;;;;;;;6.70;4.40;;;;;;;15.53;75.13;96311.47;5095611;28;20087;-66
2023/06/25 01:32:08;;;;;;;7.25;4.15;;;;;;;15.53;75.26;96311.47;5095633;28;20051;-69
2023/06/25 01:34:35;;;;;;;5.78;4.50;;;;;;;15.53;75.62;96301.78;5095613;28;20052;-70
2023/06/25 01:37:02;;;;;;;5.15;4.45;;;;;;;15.58;75.34;96308.53;5095518;28;20549;-73
2023/06/25 01:39:29;;;;;;;5.82;4.70;;;;;;;15.60;75.18;96311.94;5095059;28;20505;-68
2023/06/25 01:41:57;;;;;;;5.80;4.78;;;;;;;15.51;75.00;96313.34;5095466;28;20494;-68
2023/06/25 01:44:28;;;;;;;6.60;4.57;;;;;;;15.46;74.88;96310.16;5095137;28;20079;-65
2023/06/25 01:46:55;;;;;;;4.85;4.35;;;;;;;15.46;74.47;96307.50;5095298;28;20040;-63
2023/06/25 01:49:22;;;;;;;8.63;4.78;;;;;;;15.46;74.75;96313.63;5095230;28;20101;-66
2023/06/25 01:51:49;;;;;;;5.80;5.10;;;;;;;15.46;74.53;96310.16;5076257;28;20048;-65
2023/06/25 01:54:16;;;;;;;6.38;5.03;;;;;;;15.46;74.63;96310.16;5074962;28;20474;-67
2023/06/25 01:56:43;;;;;;;10.13;4.45;;;;;;;15.43;74.85;96308.56;5074825;28;20405;-66
2023/06/25 01:59:13;;;;;;;6.60;5.15;;;;;;;15.40;74.50;96308.75;5074803;28;20098;-70
2023/06/25 02:01:40;;;;;;;5.30;4.80;;;;;;;15.31;74.43;96304.88;5074766;28;20414;-64
2023/06/25 02:04:07;;;;;;;10.00;4.95;;;;;;;15.24;75.21;96314.09;5074722;28;20490;-71
2023/06/25 02:06:34;;;;;;;8.88;5.25;;;;;;;15.21;75.38;96314.28;5074401;28;20130;-66
2023/06/25 02:09:02;;;;;;;6.32;4.70;;;;;;;15.19;75.69;96311.75;5074583;28;20048;-66
2023/06/25 02:11:29;;;;;;;5.75;5.03;;;;;;;15.19;75.94;96309.09;5082417;28;20044;-63
2023/06/25 02:13:56;;;;;;;5.75;4.63;;;;;;;15.19;76.08;96303.84;5094840;28;20539;-64
2023/06/25 02:16:25;;;;;;;6.15;4.75;;;;;;;15.16;75.80;96301.38;5094820;28;20102;-68
2023/06/25 02:18:53;;;;;;;5.78;4.65;;;;;;;15.13;76.11;96299.78;5094740;28;20098;-65
2023/06/25 02:21:20;;;;;;;7.10;4.85;;;;;;;15.12;75.82;96295.47;5092924;28;20086;-69
2023/06/25 02:23:47;;;;;;;5.53;4.95;;;;;;;15.07;75.73;96297.53;5094621;28;20126;-70
2023/06/25 02:26:14;;;;;;;9.55;4.55;;;;;;;15.04;75.95;96292.44;5094654;28;20044;-67
2023/06/25 02:28:41;;;;;;;5.95;4.68;;;;;;;14.98;75.73;96300.69;5094535;28;20040;-67
2023/06/25 02:31:08;;;;;;;9.52;4.95;;;;;;;14.93;75.81;96305.41;5094422;28;20489;-66
2023/06/25 02:33:37;;;;;;;14.98;5.00;;;;;;;14.89;76.07;96304.72;5092725;28;20093;-70
2023/06/25 02:36:05;;;;;;;6.30;4.88;;;;;;;14.80;76.36;96306.13;5094514;28;20074;-65
2023/06/25 02:38:32;;;;;;;5.70;4.53;;;;;;;14.74;76.30;96312.56;5094353;28;20055;-67
2023/06/25 02:40:59;;;;;;;5.68;4.90;;;;;;;14.62;76.85;96310.66;5094362;28;20048;-69
2023/06/25 02:43:26;;;;;;;7.88;4.95;;;;;;;14.59;77.32;96303.78;5094383;28;20082;-69
2023/06/25 02:45:53;;;;;;;6.78;5.50;;;;;;;14.58;77.53;96298.59;5091977;28;20051;-71
2023/06/25 02:48:20;;;;;;;8.68;5.20;;;;;;;14.62;77.80;96302.75;5094008;28;20048;-65
2023/06/25 02:50:48;;;;;;;7.30;5.10;;;;;;;14.63;77.96;96297.41;5094060;28;20052;-65
2023/06/25 02:53:16;;;;;;;7.70;4.78;;;;;;;14.69;78.11;96298.00;5094084;28;20065;-68
2023/06/25 02:55:43;;;;;;;5.78;4.75;;;;;;;14.74;77.96;96304.69;5093987;28;20044;-66
2023/06/25 02:58:10;;;;;;;8.77;4.43;;;;;;;14.74;77.42;96309.09;5091855;28;20055;-67
2023/06/25 03:00:37;;;;;;;4.93;4.30;;;;;;;14.66;77.43;96309.56;5093909;28;20497;-68
2023/06/25 03:03:04;;;;;;;4.75;4.35;;;;;;;14.62;77.87;96313.28;5093930;28;20409;-69
2023/06/25 03:05:31;;;;;;;9.05;4.82;;;;;;;14.61;78.02;96304.56;5093850;28;20397;-69
2023/06/25 03:07:59;;;;;;;7.05;5.10;;;;;;;14.66;78.49;96312.19;5093933;28;20109;-69
2023/06/25 03:10:29;;;;;;;6.65;4.47;;;;;;;14.64;78.45;96308.78;5091500;28;20050;-69
2023/06/25 03:12:56;;;;;;;6.97;4.43;;;;;;;14.69;78.45;96311.16;5093766;28;20478;-67
2023/06/25 03:15:23;;;;;;;7.00;4.85;;;;;;;14.71;78.53;96309.25;5093686;28;20081;-69
2023/06/25 03:17:51;;;;;;;11.60;5.10;;;;;;;14.75;78.52;96318.69;5093015;28;20044;-67
2023/06/25 03:20:18;;;;;;;6.15;4.82;;;;;;;14.81;78.38;96318.34;5093618;28;20052;-66
2023/06/25 03:22:45;;;;;;;5.57;4.55;;;;;;;14.86;78.45;96326.84;5092337;28;20044;-71
2023/06/25 03:25:14;;;;;;;5.43;4.57;;;;;;;14.96;78.57;96326.31;5093516;28;20486;-67
2023/06/25 03:27:41;;;;;;;6.60;4.78;;;;;;;15.01;78.78;96319.81;5093445;28;20044;-68
2023/06/25 03:30:09;;;;;;;9.02;5.50;;;;;;;15.19;78.51;96316.16;5093410;28;20080;-67
2023/06/25 03:32:36;;;;;;;6.45;4.45;;;;;;;15.48;77.40;96321.44;5092996;28;20539;-67
2023/06/25 03:35:03;;;;;;;7.30;5.07;;;;;;;15.89;76.37;96325.94;5093390;28;20044;-68
2023/06/25 03:37:30;;;;;;;6.55;5.28;;;;;;;16.35;76.57;96328.41;5093208;28;20409;-66
2023/06/25 03:39:57;;;;;;;7.20;4.80;;;;;;;16.80;75.98;96325.47;5093290;28;20097;-67
2023/06/25 03:42:26;;;;;;;10.68;4.47;;;;;;;17.19;74.29;96333.50;5082648;28;20091;-70
2023/06/25 03:44:54;;;;;;;5.97;4.57;;;;;;;17.52;72.30;96328.63;5072875;28;20135;-69
2023/06/25 03:47:21;;;;;;;8.57;4.70;;;;;;;17.87;70.89;96335.00;5073057;28;20079;-68
2023/06/25 03:49:49;;;;;;;5.05;4.15;;;;;;;18.28;69.86;96331.25;5072877;28;20177;-67
2023/06/25 03:52:16;;;;;;;5.80;4.25;;;;;;;18.69;67.66;96341.53;5078271;28;20067;-71
2023/06/25 03:54:43;;;;;;;5.85;4.50;;;;;;;18.94;66.04;96345.84;5093147;28;20048;-66
2023/06/25 03:57:10;;;;;;;7.32;4.82;;;;;;;19.15;65.83;96339.91;5093122;28;20127;-70
2023/06/25 03:59:39;;;;;;;6.03;4.97;;;;;;;19.46;65.07;96336.72;5093135;28;20048;-70
2023/06/25 04:02:07;;;;;;;12.52;3.85;;;;;;;19.80;64.32;96334.06;5092179;28;20047;-66
2023/06/25 04:04:34;;;;;;;7.93;4.68;;;;;;;20.14;63.45;96333.22;5072850;28;20048;-69
2023/06/25 04:07:01;;;;;;;4.30;3.90;;;;;;;20.44;62.68;96337.00;5072906;28;20486;-68
2023/06/25 04:09:28;;;;;;;6.03;4.70;;;;;;;20.83;62.50;96328.53;5072836;28;20052;-69
2023/06/25 04:11:55;;;;;;;8.25;4.03;;;;;;;21.16;61.07;96339.16;5072762;28;20048;-68
2023/06/25 04:14:22;;;;;;;8.45;5.47;;;;;;;21.51;58.77;96342.44;5088789;28;20072;-67
2023/06/25 04:16:51;;;;;;;7.35;4.15;;;;;;;21.79;57.50;96340.06;5092902;28;20102;-67
2023/06/25 04:19:18;;;;;;;5.43;4.47;;;;;;;22.02;55.90;96342.56;5088954;28;20051;-66
2023/06/25 04:21:45;;;;;;;7.10;4.20;;;;;;;22.28;55.97;96339.41;5073719;28;20052;-70
2023/06/25 04:24:12;;;;;;;6.45;4.13;;;;;;;22.64;54.85;96338.94;5072647;28;20136;-66
2023/06/25 04:26:39;;;;;;;5.60;4.45;;;;;;;22.97;54.46;96350.13;5072694;28;20482;-69
2023/06/25 04:29:06;;;;;;;6.32;3.72;;;;;;;23.38;55.94;96335.78;5074286;28;20556;-66
2023/06/25 04:31:33;;;;;;;7.38;4.18;;;;;;;23.72;54.90;96342.47;5077530;28;20044;-67
2023/06/25 04:34:03;;;;;;;6.18;4.55;;;;;;;24.10;54.17;96345.09;5076435;28;20444;-67
2023/06/25 04:36:30;;;;;;;4.90;4.10;;;;;;;24.50;53.11;96339.56;5076436;28;20052;-67
2023/06/25 04:38:57;;;;;;;5.20;4.25;;;;;;;24.86;51.47;96340.41;5076426;28;20048;-70
2023/06/25 04:41:25;;;;;;;4.40;3.97;;;;;;;25.21;50.72;96343.22;5088594;28;20044;-66
2023/06/25 04:43:52;;;;;;;53.55;8.50;;;;;;;25.47;49.54;96345.06;5076974;28;20048;-72
2023/06/25 04:46:19;;;;;;;4.53;4.10;;;;;;;25.77;49.35;96335.91;5076225;28;20140;-71
2023/06/25 04:48:48;;;;;;;7.85;4.47;;;;;;;25.94;47.80;96334.13;5076115;28;20087;-70
2023/06/25 04:51:17;;;;;;;7.88;4.22;;;;;;;26.17;48.13;96329.06;5077071;28;20040;-67
2023/06/25 04:53:44;;;;;;;7.53;4.25;;;;;;;26.53;47.57;96341.41;5077398;28;20582;-67
2023/06/25 04:56:11;;;;;;;9.15;4.80;;;;;;;26.78;47.04;96333.41;5084996;28;20098;-71
2023/06/25 04:58:39;;;;;;;9.70;7.97;;;;;;;27.03;47.42;96330.75;5076007;28;20098;-66
2023/06/25 05:01:07;;;;;;;7.10;4.32;;;;;;;27.20;47.68;96328.06;5075958;28;20136;-68
2023/06/25 05:03:34;;;;;;;11.63;5.82;;;;;;;27.34;48.10;96337.28;5077286;28;20041;-67
2023/06/25 05:06:01;;;;;;;11.52;5.97;;;;;;;27.23;48.19;96325.91;5088891;28;20052;-72
2023/06/25 05:08:29;;;;;;;14.27;7.50;;;;;;;27.16;49.01;96332.94;5075743;28;20048;-66
2023/06/25 05:10:57;;;;;;;12.07;7.18;;;;;;;26.95;49.57;96328.91;5075631;28;20483;-66
2023/06/25 05:13:24;;;;;;;8.48;5.32;;;;;;;26.68;50.35;96320.16;5075768;28;20044;-68
2023/06/25 05:15:51;;;;;;;11.65;7.18;;;;;;;26.91;50.77;96324.84;5092315;28;20047;-66
2023/06/25 05:18:18;;;;;;;13.40;6.18;;;;;;;26.77;50.09;96329.06;5095870;28;20054;-69
2023/06/25 05:20:45;;;;;;;9.93;6.30;;;;;;;26.56;51.23;96319.63;5095860;28;20379;-68
2023/06/25 05:23:12;;;;;;;9.65;6.93;;;;;;;26.59;52.11;96321.16;5095935;28;20551;-67
2023/06/25 05:25:41;;;;;;;14.85;6.78;;;;;;;26.37;52.40;96329.63;5093943;28;20394;-65
2023/06/25 05:28:08;;;;;;;13.23;6.70;;;;;;;26.02;53.03;96322.63;5095986;28;20040;-65
2023/06/25 05:30:36;;;;;;;9.18;6.80;;;;;;;26.31;53.31;96316.06;5095724;28;20642;-67
2023/06/25 05:33:03;;;;;;;9.93;6.35;;;;;;;26.40;52.41;96319.59;5094167;28;20387;-68
2023/06/25 05:35:30;;;;;;;10.90;6.15;;;;;;;26.63;53.18;96319.81;5074989;28;20478;-68
2023/06/25 05:37:58;;;;;;;14.98;6.18;;;;;;;26.89;52.07;96321.50;5073396;28;20482;-66
2023/06/25 05:40:25;;;;;;;12.45;6.25;;;;;;;27.16;51.54;96313.31;5072362;28;20561;-68
2023/06/25 05:42:54;;;;;;;8.30;5.82;;;;;;;27.61;52.41;96317.28;5087697;28;20093;-66
2023/06/25 05:45:22;;;;;;;7.43;5.57;;;;;;;27.72;50.19;96315.28;5095143;28;20052;-63
2023/06/25 05:47:49;;;;;;;9.13;5.70;;;;;;;27.96;49.28;96310.81;5095050;28;20540;-71
2023/06/25 05:50:16;;;;;;;12.65;5.40;;;;;;;28.28;50.23;96308.13;5095253;28;20395;-69
2023/06/25 05:52:44;;;;;;;7.45;5.47;;;;;;;28.32;47.47;96310.31;5093186;28;20473;-69
2023/06/25 05:55:11;;;;;;;12.77;5.15;;;;;;;28.21;48.81;96311.56;5095191;28;20052;-70
2023/06/25 05:57:39;;;;;;;9.63;5.10;;;;;;;28.15;48.40;96312.25;5095142;28;20058;-67
2023/06/25 06:00:09;;;;;;;10.23;5.57;;;;;;;28.06;48.08;96313.28;5095162;28;20434;-66
2023/06/25 06:02:37;;;;;;;15.82;5.65;;;;;;;28.16;47.71;96310.38;5093199;28;20040;-64
2023/06/25 06:05:06;;;;;;;8.57;4.70;;;;;;;28.38;47.42;96308.78;5094958;28;20509;-66
2023/06/25 06:07:33;;;;;;;12.80;5.75;;;;;;;28.65;47.04;96325.44;5094947;28;20416;-67
2023/06/25 06:10:00;;;;;;;11.63;5.82;;;;;;;28.87;46.00;96314.84;5094688;28;20097;-67
2023/06/25 06:12:27;;;;;;;10.75;5.70;;;;;;;28.71;45.80;96319.34;5094912;28;20101;-70
2023/06/25 06:14:55;;;;;;;11.60;6.20;;;;;;;28.49;47.24;96319.16;5076426;28;20048;-70
2023/06/25 06:17:23;;;;;;;7.60;5.20;;;;;;;28.79;47.00;96318.44;5074574;28;20056;-68
2023/06/25 06:19:51;;;;;;;8.38;5.10;;;;;;;28.92;45.61;96315.16;5074532;28;20398;-68
2023/06/25 06:22:18;;;;;;;8.25;5.75;;;;;;;28.33;45.85;96314.72;5074518;28;20048;-68
2023/06/25 06:24:45;;;;;;;7.10;5.40;;;;;;;28.44;46.08;96318.84;5076613;28;20080;-69
2023/06/25 06:27:12;;;;;;;12.27;5.50;;;;;;;28.45;46.15;96309.78;5081172;28;20445;-66
2023/06/25 06:29:39;;;;;;;12.48;5.30;;;;;;;28.59;47.39;96315.41;5094503;28;20059;-66
2023/06/25 06:32:08;;;;;;;11.20;5.80;;;;;;;28.81;46.39;96310.19;5094395;28;20139;-68
2023/06/25 06:34:37;;;;;;;10.23;4.75;;;;;;;28.82;46.29;96303.78;5094361;28;20564;-67
2023/06/25 06:37:05;;;;;;;9.88;5.38;;;;;;;29.19;46.00;96307.53;5083645;28;20415;-67
2023/06/25 06:39:32;;;;;;;8.43;5.60;;;;;;;29.46;46.73;96304.41;5091025;28;20075;-69
2023/06/25 06:42:00;;;;;;;13.18;5.63;;;;;;;29.69;43.28;96314.31;5092399;28;20508;-65
2023/06/25 06:44:27;;;;;;;11.63;6.18;;;;;;;29.49;43.79;96302.22;5082297;28;20551;-66
2023/06/25 06:46:54;;;;;;;11.23;6.28;;;;;;;29.36;44.31;96307.41;5090433;28;20044;-66
2023/06/25 06:49:22;;;;;;;9.88;5.47;;;;;;;29.49;43.96;96301.38;5091128;28;20044;-65
2023/06/25 06:51:50;;;;;;;6.78;5.40;;;;;;;29.60;44.42;96300.13;5093595;28;20498;-69
2023/06/25 06:54:18;;;;;;;14.10;5.63;;;;;;;29.55;43.49;96291.72;5093471;28;20134;-65
2023/06/25 06:56:46;;;;;;;11.52;5.03;;;;;;;29.86;44.17;96294.25;5075146;28;20445;-64
2023/06/25 06:59:13;;;;;;;11.88;5.80;;;;;;;30.21;43.47;96288.28;5073573;28;20056;-67
2023/06/25 07:01:41;;;;;;;8.93;5.28;;;;;;;30.32;43.01;96292.34;5073717;28;20075;-69
2023/06/25 07:04:08;;;;;;;7.30;4.88;;;;;;;30.67;43.80;96286.25;5073519;28;20140;-69
2023/06/25 07:06:35;;;;;;;10.10;4.93;;;;;;;30.93;42.10;96290.28;5078331;28;20123;-66
2023/06/25 07:09:04;;;;;;;8.90;5.68;;;;;;;31.02;41.48;96296.38;5093794;28;20422;-68
2023/06/25 07:11:31;;;;;;;9.23;5.22;;;;;;;31.17;40.80;96285.50;5079191;28;20053;-68
2023/06/25 07:13:58;;;;;;;11.30;5.68;;;;;;;31.46;41.74;96288.22;5081362;28;20036;-67
2023/06/25 07:16:26;;;;;;;8.75;5.47;;;;;;;31.62;40.00;96289.78;5093570;28;20043;-65
2023/06/25 07:18:53;;;;;;;9.45;5.22;;;;;;;31.51;42.04;96286.59;5091865;28;20044;-67
2023/06/25 07:21:20;;;;;;;9.07;4.80;;;;;;;31.75;39.00;96286.31;5073299;28;20055;-65
2023/06/25 07:23:48;;;;;;;13.32;5.20;;;;;;;31.69;40.70;96285.25;5079527;28;20106;-68
2023/06/25 07:26:16;;;;;;;16.23;5.53;;;;;;;31.90;38.75;96280.78;5093457;28;20481;-67
2023/06/25 07:28:44;;;;;;;7.68;5.15;;;;;;;31.97;39.67;96280.84;5092698;28;20040;-68
2023/06/25 07:31:12;;;;;;;12.82;5.55;;;;;;;32.17;38.18;96275.50;5093394;28;20512;-67
2023/06/25 07:33:40;;;;;;;11.27;5.35;;;;;;;32.24;37.63;96278.25;5093421;28;20048;-65
2023/06/25 07:36:07;;;;;;;16.02;5.55;;;;;;;31.86;38.51;96276.81;5080241;28;20548;-68
2023/06/25 07:38:35;;;;;;;16.45;6.53;;;;;;;31.91;38.27;96277.06;5088883;28;20047;-68
2023/06/25 07:41:02;;;;;;;11.38;5.90;;;;;;;31.85;39.57;96278.69;5093289;28;20055;-68
2023/06/25 07:43:31;;;;;;;14.77;5.30;;;;;;;31.96;39.57;96271.88;5080454;28;20102;-67
2023/06/25 07:45:58;;;;;;;10.52;5.13;;;;;;;31.94;38.05;96271.28;5072584;28;20446;-67
2023/06/25 07:48:25;;;;;;;12.55;5.10;;;;;;;32.07;37.85;96275.06;5072146;28;20056;-67
2023/06/25 07:50:53;;;;;;;12.02;5.13;;;;;;;32.40;38.25;96272.47;5071951;28;20486;-69
2023/06/25 07:53:20;;;;;;;11.98;5.63;;;;;;;32.61;37.03;96272.53;5073859;28;20083;-67
2023/06/25 07:55:49;;;;;;;11.07;5.07;;;;;;;32.39;38.28;96265.38;5090797;28;20051;-71
2023/06/25 07:58:16;;;;;;;8.25;5.47;;;;;;;32.38;37.34;96262.88;5093050;28;20098;-70
2023/06/25 08:00:45;;;;;;;8.32;5.25;;;;;;;32.46;37.33;96264.56;5093151;28;20047;-69
2023/06/25 08:03:12;;;;;;;13.10;6.70;;;;;;;32.51;37.58;96256.72;5093266;28;20098;-67
2023/06/25 08:05:40;;;;;;;9.32;5.18;;;;;;;32.22;37.16;96259.50;5095800;28;20048;-69
2023/06/25 08:08:07;;;;;;;7.65;5.40;;;;;;;32.00;39.52;96251.53;5076898;28;20544;-70
2023/06/25 08:10:34;;;;;;;9.02;5.63;;;;;;;32.07;39.74;96253.41;5076788;28;20048;-68
2023/06/25 08:13:01;;;;;;;13.05;6.00;;;;;;;31.92;39.16;96254.41;5076978;28;20052;-66
2023/06/25 08:15:28;;;;;;;9.48;5.03;;;;;;;31.63;36.78;96248.19;5076917;28;20109;-70
2023/06/25 08:17:57;;;;;;;7.95;5.63;;;;;;;31.70;38.07;96242.84;5076780;28;20123;-68
2023/06/25 08:20:24;;;;;;;12.85;5.70;;;;;;;31.68;36.55;96244.91;5076944;28;20559;-68
2023/06/25 08:22:51;;;;;;;7.45;4.53;;;;;;;31.61;37.33;96240.31;5076662;28;20053;-67
2023/06/25 08:25:23;;;;;;;7.85;5.28;;;;;;;31.60;38.41;96240.53;5076674;28;20127;-67
2023/06/25 08:27:51;;;;;;;11.27;5.63;;;;;;;31.44;38.14;96237.09;5076553;28;20048;-69
2023/06/25 08:30:19;;;;;;;12.27;5.03;;;;;;;31.22;38.08;96234.44;5076279;28;20044;-69
2023/06/25 08:32:46;;;;;;;8.65;4.88;;;;;;;31.35;38.32;96232.88;5094952;28;20053;-66
2023/06/25 08:35:15;;;;;;;10.93;5.20;;;;;;;31.68;37.41;96225.97;5096744;28;20072;-69
2023/06/25 08:37:42;;;;;;;9.73;4.80;;;;;;;31.67;39.57;96230.56;5096781;28;20052;-69
2023/06/25 08:40:12;;;;;;;8.15;5.32;;;;;;;31.76;40.51;96223.13;5096565;28;20481;-66
2023/06/25 08:42:41;;;;;;;12.13;5.28;;;;;;;31.40;42.25;96225.03;5096799;28;20083;-68
2023/06/25 08:45:10;;;;;;;7.90;5.00;;;;;;;31.32;40.01;96219.72;5079382;28;20052;-70
2023/06/25 08:47:39;;;;;;;9.63;5.20;;;;;;;30.99;39.66;96223.88;5076181;28;20044;-71
2023/06/25 08:50:08;;;;;;;14.83;5.57;;;;;;;31.01;40.84;96229.94;5076066;28;20044;-65
2023/06/25 08:52:38;;;;;;;13.93;5.60;;;;;;;30.98;36.43;96219.53;5084745;28;20044;-67
2023/06/25 08:55:09;;;;;;;8.40;5.43;;;;;;;30.99;37.85;96216.63;5096450;28;20101;-68
2023/06/25 08:57:36;;;;;;;8.30;5.32;;;;;;;31.12;38.18;96212.38;5096318;28;20123;-66
2023/06/25 09:00:04;;;;;;;12.90;5.45;;;;;;;31.15;36.22;96201.13;5094140;28;20079;-67
2023/06/25 09:02:32;;;;;;;12.05;5.57;;;;;;;30.94;37.59;96202.06;5096133;28;20048;-68
2023/06/25 09:05:05;;;;;;;13.77;5.10;;;;;;;30.77;38.93;96205.88;5094384;28;20104;-67
2023/06/25 09:07:35;;;;;;;9.18;5.35;;;;;;;30.45;39.06;96202.66;5075785;28;20076;-68
2023/06/25 09:10:07;;;;;;;11.07;5.20;;;;;;;30.39;39.81;96203.41;5075746;28;20505;-66
2023/06/25 09:12:35;;;;;;;10.57;5.20;;;;;;;30.17;40.82;96203.41;5079117;28;20110;-66
2023/06/25 09:15:03;;;;;;;13.13;5.38;;;;;;;30.13;40.57;96210.19;5094951;28;20052;-68
2023/06/25 09:17:30;;;;;;;8.82;4.97;;;;;;;30.29;41.86;96206.44;5095873;28;20048;-66
2023/06/25 09:20:04;;;;;;;14.02;5.05;;;;;;;30.24;42.68;96204.31;5095904;28;20083;-70
2023/06/25 09:22:32;;;;;;;8.38;4.68;;;;;;;30.12;42.19;96197.72;5095264;28;20409;-65
2023/06/25 09:25:01;;;;;;;8.50;5.32;;;;;;;29.97;40.28;96204.00;5092859;28;20079;-69
2023/06/25 09:27:33;;;;;;;6.15;4.53;;;;;;;29.94;40.17;96190.06;5095770;28;20394;-66
2023/06/25 09:30:02;;;;;;;11.27;5.93;;;;;;;30.04;41.41;96181.69;5095649;28;20047;-66
2023/06/25 09:32:29;;;;;;;11.80;5.30;;;;;;;30.18;39.02;96194.28;5095579;28;20044;-69
2023/06/25 09:34:57;;;;;;;8.32;5.15;;;;;;;30.27;41.30;96187.75;5093963;28;20040;-69
2023/06/25 09:37:24;;;;;;;10.60;5.03;;;;;;;30.07;41.95;96184.81;5095683;28;20045;-69
2023/06/25 09:39:52;;;;;;;9.70;5.68;;;;;;;29.91;43.73;96187.75;5095660;28;20063;-66
2023/06/25 09:42:20;;;;;;;12.48;5.40;;;;;;;30.20;45.01;96188.72;5095867;28;20090;-65
2023/06/25 09:44:52;;;;;;;9.15;5.70;;;;;;;30.26;43.76;96190.66;5094911;28;20048;-69
2023/06/25 09:47:21;;;;;;;11.93;5.60;;;;;;;30.31;43.17;96195.47;5084093;28;20044;-65
2023/06/25 09:49:52;;;;;;;8.55;5.28;;;;;;;30.72;41.88;96186.69;5091987;28;20456;-70
2023/06/25 09:52:19;;;;;;;;;;;;;;;31.20;40.31;96185.19;5085349;28;20502;-67
2023/06/25 09:54:50;;;;;;;8.82;5.28;;;;;;;31.37;41.22;96177.66;5095020;28;19926;-68
2023/06/25 09:57:20;;;;;;;8.68;4.88;;;;;;;31.46;39.98;96177.47;5093732;28;20044;-67
2023/06/25 09:59:49;;;;;;;8.63;5.07;;;;;;;31.45;38.61;96182.03;5091386;28;20047;-67
2023/06/25 10:02:18;;;;;;;9.60;5.20;;;;;;;30.88;39.28;96174.00;5084928;28;20545;-67
2023/06/25 10:04:45;;;;;;;11.23;4.47;;;;;;;30.44;40.16;96178.56;5088554;28;20135;-71
2023/06/25 10:07:14;;;;;;;8.00;5.03;;;;;;;30.27;40.40;96174.28;5080047;28;20053;-70
2023/06/25 10:09:53;;;;;;;7.57;5.03;;;;;;;29.91;44.26;96175.09;5074977;28;20044;-68
2023/06/25 10:12:20;;;;;;;10.40;5.03;;;;;;;30.13;42.06;96161.66;5074482;28;20049;-70
2023/06/25 10:14:50;;;;;;;9.55;5.40;;;;;;;30.18;41.89;96164.63;5075402;28;20095;-66
2023/06/25 10:17:23;;;;;;;8.25;5.28;;;;;;;30.06;42.55;96168.81;5074540;28;20087;-70
2023/06/25 10:19:56;;;;;;;7.45;4.63;;;;;;;30.08;41.44;96158.69;5074403;28;20055;-68
2023/06/25 10:22:25;;;;;;;8.63;4.63;;;;;;;30.16;40.02;96155.91;5087947;28;20047;-69
2023/06/25 10:24:55;;;;;;;10.45;5.13;;;;;;;29.71;41.74;96148.75;5094702;28;20132;-66
2023/06/25 10:27:28;;;;;;;13.48;5.53;;;;;;;29.21;42.01;96145.84;5094429;28;20139;-68
2023/06/25 10:29:58;;;;;;;12.70;5.05;;;;;;;28.98;41.88;96139.53;5094702;28;20109;-66
2023/06/25 10:32:26;;;;;;;8.68;5.18;;;;;;;29.04;42.64;96127.19;5082765;28;20422;-67
2023/06/25 10:34:55;;;;;;;7.95;5.40;;;;;;;29.28;42.99;96135.16;5074185;28;20063;-66
2023/06/25 10:37:23;;;;;;;7.40;4.68;;;;;;;29.45;44.05;96128.56;5074104;28;20044;-66
2023/06/25 10:40:01;;;;;;;9.98;5.00;;;;;;;29.49;42.74;96127.13;5074039;28;20109;-67
2023/06/25 10:42:31;;;;;;;11.13;4.97;;;;;;;29.67;41.21;96125.94;5074020;28;20045;-68
2023/06/25 10:45:00;;;;;;;12.20;5.28;;;;;;;29.61;40.23;96126.69;5074701;28;20090;-68
2023/06/25 10:47:28;;;;;;;11.98;5.55;;;;;;;29.63;40.86;96119.25;5073649;28;20425;-67
2023/06/25 10:49:55;;;;;;;6.97;4.60;;;;;;;29.53;43.06;96114.16;5073811;28;20036;-68
2023/06/25 10:52:23;;;;;;;9.43;5.13;;;;;;;29.44;42.97;96121.50;5073665;28;20049;-65
2023/06/25 10:54:51;;;;;;;8.93;4.85;;;;;;;29.54;41.09;96114.97;5073808;28;20124;-64
2023/06/25 10:57:18;;;;;;;9.77;4.78;;;;;;;29.79;40.45;96110.09;5082908;28;20123;-67
2023/06/25 10:59:48;;;;;;;8.40;4.60;;;;;;;30.02;40.46;96101.00;5094033;28;20481;-70
2023/06/25 11:02:19;;;;;;;8.33;4.43;;;;;;;30.18;37.63;96097.22;5093700;28;20109;-69
2023/06/25 11:04:52;;;;;;;9.95;4.20;;;;;;;30.29;38.39;96100.44;5093956;28;20048;-69
2023/06/25 11:07:20;;;;;;;6.70;3.78;;;;;;;30.29;34.49;96093.19;5093875;28;20055;-65
2023/06/25 11:09:52;;;;;;;15.00;4.85;;;;;;;30.36;38.70;96098.63;5086191;28;20044;-66
2023/06/25 11:12:20;;;;;;;8.55;4.57;;;;;;;30.15;36.75;96100.28;5073585;28;20071;-66
2023/06/25 11:14:49;;;;;;;5.80;4.00;;;;;;;30.11;35.75;96099.00;5084973;28;20050;-68
2023/06/25 11:17:18;;;;;;;9.20;4.30;;;;;;;30.18;37.36;96094.53;5092484;28;20410;-67
2023/06/25 11:19:52;;;;;;;11.98;4.40;;;;;;;30.30;38.62;96100.25;5092286;28;20481;-70
2023/06/25 11:22:20;;;;;;;5.90;4.47;;;;;;;30.37;39.08;96084.94;5092492;28;20482;-67
2023/06/25 11:24:48;;;;;;;8.40;4.25;;;;;;;30.52;40.52;96092.13;5093705;28;20048;-67
2023/06/25 11:27:24;;;;;;;5.20;3.97;;;;;;;30.56;37.97;96090.69;5092836;28;20048;-66
2023/06/25 11:29:54;;;;;;;6.63;4.78;;;;;;;30.44;36.51;96089.56;5091299;28;20048;-69
2023/06/25 11:32:27;;;;;;;15.85;4.60;;;;;;;30.55;36.93;96090.91;5092767;28;20117;-65
2023/06/25 11:34:54;;;;;;;5.97;4.00;;;;;;;30.47;35.44;96087.31;5093444;28;20044;-68